Time;durP1;ratioP1;P1;durP2;ratioP2;P2;SDS_P1;SDS_P2;PMS_P1;PMS_P2;Temp;Humidity;BMP_temperature;BMP_pressure;BME280_temperature;BME280_humidity;BME280_pressure;Samples;Min_cycle;Max_cycle;Signal;HPM_P1;HPM_P2
2023/09/05 00:01:12;;;;;;;5.88;2.40;;;19.40;99.90;;;;;;4984687;28;20575;-58
2023/09/05 00:03:38;;;;;;;9.35;2.72;;;19.30;99.90;;;;;;4995230;28;20026;-56
2023/09/05 00:06:05;;;;;;;2.45;2.22;;;19.30;99.90;;;;;;4995576;28;20117;-59
2023/09/05 00:08:31;;;;;;;4.05;2.38;;;19.30;99.90;;;;;;4995393;28;20030;-57
2023/09/05 00:11:01;;;;;;;2.90;2.22;;;19.30;99.90;;;;;;5012666;28;20034;-56
2023/09/05 00:13:26;;;;;;;4.40;2.10;;;19.20;99.90;;;;;;4994783;28;20022;-55
2023/09/05 00:15:52;;;;;;;2.17;1.98;;;19.20;99.90;;;;;;4995177;28;20402;-58
2023/09/05 00:18:18;;;;;;;2.83;2.10;;;19.10;99.90;;;;;;4995386;28;20497;-58
2023/09/05 00:20:45;;;;;;;2.35;2.15;;;19.10;99.90;;;;;;4995484;28;20036;-58
2023/09/05 00:23:10;;;;;;;3.00;2.50;;;19.10;99.90;;;;;;4995245;28;20029;-59
2023/09/05 00:25:36;;;;;;;3.97;2.15;;;19.10;99.90;;;;;;5013073;28;20078;-59
2023/09/05 00:28:03;;;;;;;4.30;2.50;;;19.00;99.90;;;;;;4995283;28;20021;-58
2023/09/05 00:30:34;;;;;;;3.00;2.00;;;19.00;99.90;;;;;;4994888;28;20022;-58
2023/09/05 00:33:01;;;;;;;6.80;2.70;;;18.90;99.90;;;;;;4995270;28;20137;-57
2023/09/05 00:35:26;;;;;;;5.40;2.30;;;18.90;99.90;;;;;;4994860;28;20113;-59
2023/09/05 00:37:54;;;;;;;6.82;2.13;;;19.00;99.90;;;;;;4995013;28;20014;-59
2023/09/05 00:40:20;;;;;;;3.13;2.13;;;18.80;99.90;;;;;;4994466;28;20042;-57
2023/09/05 00:42:45;;;;;;;2.55;2.03;;;18.80;99.90;;;;;;4994857;28;20108;-53
2023/09/05 00:45:11;;;;;;;7.72;2.40;;;18.80;99.90;;;;;;4994742;28;20026;-58
2023/09/05 00:47:38;;;;;;;4.22;2.15;;;18.80;99.90;;;;;;4994870;28;20025;-54
2023/09/05 00:50:06;;;;;;;4.70;2.08;;;18.80;99.90;;;;;;4994626;28;20034;-54
2023/09/05 00:52:33;;;;;;;3.90;2.25;;;18.90;99.90;;;;;;4994506;28;20117;-55
2023/09/05 00:54:58;;;;;;;2.40;2.13;;;18.90;99.90;;;;;;4994902;28;20049;-53
2023/09/05 00:57:25;;;;;;;2.88;2.13;;;18.90;99.90;;;;;;4994634;28;20508;-58
2023/09/05 00:59:51;;;;;;;2.83;2.50;;;18.90;99.90;;;;;;4994435;28;20061;-59
2023/09/05 01:02:16;;;;;;;2.50;2.25;;;18.70;99.90;;;;;;4994387;28;20065;-54
2023/09/05 01:04:43;;;;;;;7.97;2.53;;;18.70;99.90;;;;;;4994392;28;20030;-54
2023/09/05 01:07:20;;;;;;;3.50;1.90;;;18.70;99.90;;;;;;4994658;28;20117;-56
2023/09/05 01:10:05;;;;;;;3.63;2.20;;;18.70;99.90;;;;;;5010698;28;20025;-56
2023/09/05 01:12:31;;;;;;;7.70;2.60;;;18.70;99.90;;;;;;5010630;28;20040;-55
2023/09/05 01:14:56;;;;;;;3.47;2.35;;;18.70;99.90;;;;;;4994331;28;20022;-58
2023/09/05 01:17:22;;;;;;;4.03;2.70;;;18.60;99.90;;;;;;4994596;28;20114;-59
2023/09/05 01:19:53;;;;;;;2.88;2.40;;;18.60;99.90;;;;;;5012496;28;20401;-57
2023/09/05 01:22:21;;;;;;;4.82;2.30;;;18.60;99.90;;;;;;4994595;28;20092;-57
2023/09/05 01:24:49;;;;;;;3.42;2.17;;;18.60;99.90;;;;;;4994258;28;20489;-58
2023/09/05 01:27:17;;;;;;;3.05;2.20;;;18.60;99.90;;;;;;4994255;28;20033;-59
2023/09/05 01:29:44;;;;;;;3.30;2.20;;;18.60;99.90;;;;;;4994592;28;20120;-59
2023/09/05 01:32:10;;;;;;;4.20;2.83;;;18.50;99.90;;;;;;4994530;28;20030;-58
2023/09/05 01:34:36;;;;;;;8.40;2.28;;;18.40;99.90;;;;;;4994176;28;20369;-56
2023/09/05 01:37:02;;;;;;;4.18;2.53;;;18.40;99.90;;;;;;4993962;28;20029;-59
2023/09/05 01:39:27;;;;;;;5.18;2.15;;;18.40;99.90;;;;;;4994977;28;20030;-56
2023/09/05 01:41:53;;;;;;;4.53;2.60;;;18.30;99.90;;;;;;4995314;28;20029;-59
2023/09/05 01:44:19;;;;;;;4.53;2.30;;;18.30;99.90;;;;;;4994293;28;20081;-60
2023/09/05 01:46:45;;;;;;;2.47;2.03;;;18.30;99.90;;;;;;4994248;28;20066;-60
2023/09/05 01:49:10;;;;;;;2.22;1.92;;;18.20;99.90;;;;;;4994410;28;20027;-60
2023/09/05 01:51:36;;;;;;;5.70;2.58;;;18.20;99.90;;;;;;4993649;28;20042;-59
2023/09/05 01:54:02;;;;;;;2.88;2.47;;;18.20;99.90;;;;;;4993966;28;20129;-61
2023/09/05 01:56:28;;;;;;;3.22;2.08;;;18.20;99.90;;;;;;5011688;28;20509;-60
2023/09/05 01:58:54;;;;;;;6.68;2.53;;;18.20;99.90;;;;;;4994077;28;20026;-60
2023/09/05 02:01:20;;;;;;;3.08;2.15;;;18.20;99.90;;;;;;4993929;28;20022;-59
2023/09/05 02:03:46;;;;;;;4.38;2.35;;;18.20;99.90;;;;;;4993739;28;20054;-59
2023/09/05 02:06:13;;;;;;;2.95;2.75;;;18.20;99.90;;;;;;4994029;28;20029;-60
2023/09/05 02:08:39;;;;;;;3.05;2.50;;;18.20;99.90;;;;;;4997537;28;20490;-57
2023/09/05 02:11:04;;;;;;;2.00;1.90;;;18.20;99.90;;;;;;4997312;28;20113;-57
2023/09/05 02:13:30;;;;;;;2.55;2.05;;;18.20;99.90;;;;;;4997422;28;20510;-58
2023/09/05 02:15:56;;;;;;;3.90;2.35;;;18.20;99.90;;;;;;4997496;28;20022;-59
2023/09/05 02:18:21;;;;;;;3.72;2.58;;;18.20;99.90;;;;;;5015214;28;20022;-59
2023/09/05 02:20:47;;;;;;;3.25;2.40;;;18.10;99.90;;;;;;4997575;28;20515;-59
2023/09/05 02:23:13;;;;;;;3.70;2.80;;;18.10;99.90;;;;;;4997322;28;20040;-58
2023/09/05 02:25:38;;;;;;;5.47;2.10;;;18.10;99.90;;;;;;4997264;28;20030;-59
2023/09/05 02:28:04;;;;;;;5.40;2.40;;;18.00;99.90;;;;;;4997315;28;20021;-57
2023/09/05 02:30:30;;;;;;;5.15;2.10;;;18.00;99.90;;;;;;4997130;28;20029;-59
2023/09/05 02:32:56;;;;;;;3.25;2.55;;;18.00;99.90;;;;;;4997373;28;20045;-60
2023/09/05 02:35:27;;;;;;;4.05;1.83;;;18.00;99.90;;;;;;4996905;28;20018;-60
2023/09/05 02:37:54;;;;;;;2.80;1.90;;;18.00;99.90;;;;;;4997268;28;20466;-57
2023/09/05 02:40:20;;;;;;;5.40;2.63;;;18.00;99.90;;;;;;4996976;28;20543;-59
2023/09/05 02:42:46;;;;;;;2.75;2.55;;;18.00;99.90;;;;;;4997058;28;20519;-57
2023/09/05 02:45:12;;;;;;;2.95;2.63;;;18.00;99.90;;;;;;4996908;28;20128;-59
2023/09/05 02:47:38;;;;;;;3.60;2.40;;;18.00;99.90;;;;;;5013246;28;20032;-59
2023/09/05 02:50:04;;;;;;;5.93;2.17;;;18.00;99.90;;;;;;4996607;28;20481;-59
2023/09/05 02:52:31;;;;;;;2.72;2.35;;;18.00;99.90;;;;;;4996478;28;20125;-59
2023/09/05 02:54:56;;;;;;;4.97;3.05;;;18.00;99.90;;;;;;4996816;28;20110;-59
2023/09/05 02:57:23;;;;;;;3.55;2.40;;;18.00;99.90;;;;;;4996598;28;20541;-60
2023/09/05 02:59:53;;;;;;;6.20;2.80;;;17.90;99.90;;;;;;4996289;28;20033;-59
2023/09/05 03:02:19;;;;;;;2.90;2.60;;;17.80;99.90;;;;;;4996550;28;20030;-59
2023/09/05 03:04:45;;;;;;;4.82;2.35;;;17.70;99.90;;;;;;4996592;28;20037;-59
2023/09/05 03:07:10;;;;;;;2.70;2.50;;;17.70;99.90;;;;;;4996607;28;20026;-59
2023/09/05 03:09:37;;;;;;;5.10;2.20;;;17.60;99.90;;;;;;4996573;28;20112;-53
2023/09/05 03:12:04;;;;;;;7.93;2.38;;;17.60;99.90;;;;;;4996263;28;20030;-58
2023/09/05 03:14:30;;;;;;;3.25;2.30;;;17.50;99.90;;;;;;5013910;28;20513;-57
2023/09/05 03:16:57;;;;;;;5.38;2.70;;;17.50;99.90;;;;;;4996558;28;20026;-56
2023/09/05 03:19:23;;;;;;;5.10;2.50;;;17.50;99.90;;;;;;5011405;28;20120;-59
2023/09/05 03:21:49;;;;;;;5.25;2.70;;;17.40;99.90;;;;;;4995935;28;20164;-59
2023/09/05 03:24:17;;;;;;;6.18;3.70;;;17.40;99.90;;;;;;4995950;28;20088;-60
2023/09/05 03:26:45;;;;;;;5.53;3.17;;;17.40;99.90;;;;;;4996014;28;20018;-60
2023/09/05 03:29:10;;;;;;;5.72;2.70;;;17.40;99.90;;;;;;4996785;28;20022;-58
2023/09/05 03:31:36;;;;;;;6.20;2.88;;;17.40;99.90;;;;;;4995856;28;20164;-53
2023/09/05 03:34:02;;;;;;;3.85;3.13;;;17.40;99.90;;;;;;5013983;28;20125;-59
2023/09/05 03:36:27;;;;;;;4.50;2.20;;;17.40;99.90;;;;;;4995821;28;20025;-59
2023/09/05 03:38:53;;;;;;;3.00;2.63;;;17.40;99.90;;;;;;4995980;28;20560;-56
2023/09/05 03:41:18;;;;;;;4.07;2.70;;;17.40;99.90;;;;;;4995870;28;20116;-59
2023/09/05 03:43:44;;;;;;;3.60;3.03;;;17.30;99.90;;;;;;4996352;28;20030;-60
2023/09/05 03:46:10;;;;;;;3.65;2.28;;;17.30;99.90;;;;;;4996148;28;20026;-60
2023/09/05 03:48:35;;;;;;;5.97;2.72;;;17.20;99.90;;;;;;4996244;28;20037;-59
2023/09/05 03:51:01;;;;;;;8.70;2.72;;;17.20;99.90;;;;;;5013660;28;20084;-60
2023/09/05 03:53:26;;;;;;;6.57;2.65;;;17.20;99.90;;;;;;5012497;28;20489;-56
2023/09/05 03:55:52;;;;;;;6.05;3.03;;;17.10;99.90;;;;;;4996016;28;20494;-59
2023/09/05 03:58:17;;;;;;;6.82;3.55;;;17.20;99.90;;;;;;4995996;28;20497;-57
2023/09/05 04:00:43;;;;;;;6.22;2.80;;;17.20;99.90;;;;;;4995777;28;20017;-59
2023/09/05 04:03:12;;;;;;;6.00;2.60;;;17.20;99.90;;;;;;4995519;28;20456;-59
2023/09/05 04:05:38;;;;;;;3.70;2.58;;;17.20;99.90;;;;;;4995493;28;20457;-53
2023/09/05 04:08:07;;;;;;;2.40;2.15;;;17.30;99.90;;;;;;4995904;28;20079;-58
2023/09/05 04:10:34;;;;;;;2.60;2.38;;;17.20;99.90;;;;;;4995646;28;20037;-57
2023/09/05 04:12:59;;;;;;;4.90;2.83;;;17.30;99.90;;;;;;4995633;28;20096;-58
2023/09/05 04:15:25;;;;;;;3.95;2.83;;;17.30;99.90;;;;;;4995615;28;20077;-56
2023/09/05 04:17:51;;;;;;;2.47;2.25;;;17.30;99.90;;;;;;4995680;28;20065;-54
2023/09/05 04:20:17;;;;;;;2.97;2.38;;;17.30;99.90;;;;;;4995488;28;20026;-59
2023/09/05 04:22:42;;;;;;;4.82;2.92;;;17.30;99.90;;;;;;4995206;28;20026;-58
2023/09/05 04:25:08;;;;;;;5.45;2.80;;;17.30;99.90;;;;;;4995116;28;20029;-60
2023/09/05 04:27:34;;;;;;;6.22;2.88;;;17.30;99.90;;;;;;4995319;28;20124;-60
2023/09/05 04:30:00;;;;;;;11.02;2.95;;;17.40;99.90;;;;;;4994631;28;20113;-59
2023/09/05 04:32:31;;;;;;;8.30;3.00;;;17.40;99.90;;;;;;5011273;28;20370;-60
2023/09/05 04:35:06;;;;;;;4.82;3.00;;;17.40;99.90;;;;;;4995367;28;20028;-59
2023/09/05 04:37:31;;;;;;;2.42;2.22;;;17.40;99.90;;;;;;4994904;28;20559;-59
2023/09/05 04:39:57;;;;;;;5.95;2.65;;;17.40;99.90;;;;;;4994762;28;20038;-60
2023/09/05 04:42:25;;;;;;;5.25;3.20;;;17.40;99.90;;;;;;4994895;28;20072;-60
2023/09/05 04:44:51;;;;;;;3.15;2.85;;;17.30;99.90;;;;;;4994800;28;20056;-59
2023/09/05 04:47:24;;;;;;;3.13;2.70;;;17.30;99.90;;;;;;4995171;28;20030;-58
2023/09/05 04:49:52;;;;;;;5.10;3.03;;;17.30;99.90;;;;;;4994883;28;20510;-59
2023/09/05 04:52:23;;;;;;;3.78;3.42;;;17.20;99.90;;;;;;4994752;28;20092;-59
2023/09/05 04:54:48;;;;;;;7.95;4.03;;;17.10;99.90;;;;;;4995225;28;20021;-58
2023/09/05 04:57:16;;;;;;;3.65;3.22;;;17.00;99.90;;;;;;4995147;28;20022;-57
2023/09/05 04:59:44;;;;;;;6.28;4.72;;;17.00;99.90;;;;;;4994765;28;20032;-59
2023/09/05 05:02:10;;;;;;;4.95;4.15;;;16.90;99.90;;;;;;4995019;28;20354;-59
2023/09/05 05:04:37;;;;;;;3.85;3.30;;;16.80;99.90;;;;;;4994542;28;20021;-57
2023/09/05 05:07:02;;;;;;;4.35;3.15;;;16.70;99.90;;;;;;4994905;28;20029;-59
2023/09/05 05:09:28;;;;;;;3.53;2.90;;;16.70;99.90;;;;;;4994907;28;20037;-57
2023/09/05 05:11:55;;;;;;;7.03;3.10;;;16.70;99.90;;;;;;4994669;28;20068;-58
2023/09/05 05:14:20;;;;;;;4.78;2.63;;;16.70;99.90;;;;;;4994494;28;20091;-59
2023/09/05 05:16:46;;;;;;;3.67;3.22;;;16.70;99.90;;;;;;4994656;28;20022;-58
2023/09/05 05:19:12;;;;;;;3.97;2.80;;;16.70;99.90;;;;;;4994660;28;20510;-55
2023/09/05 05:21:38;;;;;;;4.13;2.15;;;16.80;99.90;;;;;;4994479;28;20042;-57
2023/09/05 05:24:05;;;;;;;2.70;2.50;;;16.80;99.90;;;;;;4994971;28;20045;-60
2023/09/05 05:26:31;;;;;;;4.65;3.22;;;16.80;99.90;;;;;;4994873;28;20362;-56
2023/09/05 05:28:57;;;;;;;6.07;2.88;;;16.90;99.90;;;;;;4994905;28;20026;-57
2023/09/05 05:31:22;;;;;;;3.22;2.67;;;17.10;99.90;;;;;;4994458;28;20113;-56
2023/09/05 05:33:48;;;;;;;6.50;3.88;;;17.10;99.90;;;;;;4994584;28;20026;-56
2023/09/05 05:36:14;;;;;;;4.55;2.75;;;17.20;99.90;;;;;;4994466;28;20030;-59
2023/09/05 05:38:40;;;;;;;5.07;3.53;;;17.30;99.90;;;;;;4994710;28;20028;-56
2023/09/05 05:41:09;;;;;;;5.20;2.90;;;17.30;99.90;;;;;;4994769;28;20034;-58
2023/09/05 05:43:35;;;;;;;3.42;2.40;;;17.30;99.90;;;;;;4997878;28;20032;-56
2023/09/05 05:46:01;;;;;;;7.68;2.70;;;17.50;99.90;;;;;;4998460;28;20029;-58
2023/09/05 05:48:26;;;;;;;4.50;2.85;;;17.60;99.90;;;;;;4998711;28;20121;-56
2023/09/05 05:50:52;;;;;;;4.22;2.78;;;17.70;99.90;;;;;;5019473;23;20041;-50
2023/09/05 05:53:20;;;;;;;2.67;2.47;;;17.70;99.90;;;;;;4996225;28;20044;-52
2023/09/05 05:55:46;;;;;;;5.28;2.45;;;17.70;99.90;;;;;;4997497;28;20026;-49
2023/09/05 05:58:13;;;;;;;3.58;2.58;;;17.80;99.90;;;;;;4997518;28;20022;-52
2023/09/05 06:00:50;;;;;;;6.60;2.22;;;17.80;99.90;;;;;;4997944;28;20030;-51
2023/09/05 06:03:19;;;;;;;5.93;3.08;;;17.90;99.90;;;;;;5016891;28;20463;-48
2023/09/05 06:05:45;;;;;;;2.50;2.30;;;18.00;99.90;;;;;;5016876;28;20025;-51
2023/09/05 06:08:11;;;;;;;13.65;2.42;;;18.10;99.90;;;;;;5017098;28;20484;-53
2023/09/05 06:10:37;;;;;;;6.90;2.63;;;18.10;99.90;;;;;;5016583;28;20061;-49
2023/09/05 06:13:04;;;;;;;3.30;2.92;;;18.20;99.90;;;;;;5016660;28;20108;-49
2023/09/05 06:15:33;;;;;;;4.80;2.40;;;18.30;99.90;;;;;;5016613;28;20022;-53
2023/09/05 06:18:00;;;;;;;2.92;2.40;;;18.40;99.90;;;;;;5016583;28;20025;-51
2023/09/05 06:20:26;;;;;;;2.83;2.30;;;18.50;99.90;;;;;;5016885;28;20448;-47
2023/09/05 06:22:51;;;;;;;2.33;2.13;;;18.60;99.90;;;;;;5016512;28;20025;-50
2023/09/05 06:25:17;;;;;;;4.65;3.03;;;18.70;99.90;;;;;;5016457;28;20025;-50
2023/09/05 06:27:43;;;;;;;8.63;3.85;;;18.80;99.90;;;;;;5016960;28;20025;-50
2023/09/05 06:30:12;;;;;;;7.40;2.92;;;18.90;99.90;;;;;;5016434;28;20025;-48
2023/09/05 06:32:38;;;;;;;4.15;2.17;;;19.00;99.90;;;;;;5016240;28;20076;-50
2023/09/05 06:35:07;;;;;;;6.20;2.72;;;19.10;99.90;;;;;;5016354;28;20493;-52
2023/09/05 06:37:35;;;;;;;5.78;2.65;;;19.20;99.90;;;;;;5016454;28;20021;-51
2023/09/05 06:40:05;;;;;;;2.60;2.40;;;19.40;99.90;;;;;;5016228;28;20026;-50
2023/09/05 06:42:30;;;;;;;6.47;2.75;;;19.60;99.90;;;;;;5016086;28;20476;-52
2023/09/05 06:44:56;;;;;;;3.15;2.35;;;19.80;99.90;;;;;;5016271;28;20116;-52
2023/09/05 06:47:22;;;;;;;5.78;2.90;;;20.00;99.90;;;;;;5016366;28;20032;-51
2023/09/05 06:49:47;;;;;;;3.28;2.60;;;20.30;99.90;;;;;;5015943;28;20065;-52
2023/09/05 06:52:13;;;;;;;3.28;2.97;;;20.70;99.90;;;;;;5015787;28;20123;-49
2023/09/05 06:54:38;;;;;;;4.32;2.63;;;21.00;99.90;;;;;;5016059;28;20053;-54
2023/09/05 06:57:04;;;;;;;6.75;3.00;;;21.20;99.90;;;;;;5032825;28;20113;-55
2023/09/05 06:59:30;;;;;;;4.82;2.55;;;21.70;99.90;;;;;;5025475;28;20396;-55
2023/09/05 07:01:55;;;;;;;8.35;2.78;;;22.70;99.90;;;;;;5015609;28;20080;-50
2023/09/05 07:04:21;;;;;;;4.22;2.83;;;23.50;99.90;;;;;;5015576;28;20022;-51
2023/09/05 07:06:48;;;;;;;2.42;2.22;;;24.30;99.90;;;;;;5015995;28;20024;-52
2023/09/05 07:09:14;;;;;;;6.60;2.85;;;24.90;98.80;;;;;;5015989;28;20429;-48
2023/09/05 07:11:40;;;;;;;4.45;2.33;;;25.30;98.20;;;;;;5015519;28;20475;-52
2023/09/05 07:14:06;;;;;;;6.90;2.17;;;25.80;96.80;;;;;;5015825;28;20029;-51
2023/09/05 07:16:31;;;;;;;3.58;2.47;;;25.80;96.40;;;;;;5015751;28;20022;-53
2023/09/05 07:18:57;;;;;;;3.10;2.05;;;25.80;96.30;;;;;;5015647;28;20121;-53
2023/09/05 07:21:22;;;;;;;4.30;2.10;;;26.40;95.60;;;;;;5015566;28;20025;-54
2023/09/05 07:23:48;;;;;;;2.85;2.33;;;26.40;95.60;;;;;;5015300;28;20052;-54
2023/09/05 07:26:13;;;;;;;7.15;2.40;;;26.60;95.10;;;;;;5015581;28;20060;-55
2023/09/05 07:28:39;;;;;;;5.93;2.35;;;26.60;94.70;;;;;;5015348;28;20021;-53
2023/09/05 07:31:04;;;;;;;4.80;2.40;;;27.00;94.70;;;;;;5015232;28;20037;-52
2023/09/05 07:33:31;;;;;;;3.70;1.98;;;27.20;94.00;;;;;;5015209;28;20176;-55
2023/09/05 07:35:57;;;;;;;4.18;2.42;;;27.00;93.80;;;;;;5015421;28;20401;-49
2023/09/05 07:38:23;;;;;;;2.35;1.83;;;27.10;93.70;;;;;;5015338;28;20021;-55
2023/09/05 07:40:49;;;;;;;2.28;1.90;;;26.90;94.30;;;;;;5015010;28;20562;-55
2023/09/05 07:43:14;;;;;;;2.42;2.13;;;27.60;94.00;;;;;;5015293;28;20639;-53
2023/09/05 07:45:40;;;;;;;1.65;1.55;;;28.30;92.70;;;;;;5015212;28;20382;-52
2023/09/05 07:48:09;;;;;;;4.40;2.05;;;28.60;91.90;;;;;;5016908;28;20397;-55
2023/09/05 07:50:35;;;;;;;2.85;2.15;;;28.40;92.00;;;;;;5029544;28;20082;-57
2023/09/05 07:53:01;;;;;;;2.05;1.95;;;28.30;92.00;;;;;;5014973;28;20033;-55
2023/09/05 07:55:26;;;;;;;4.85;2.15;;;28.30;92.20;;;;;;5015251;28;20032;-54
2023/09/05 07:57:52;;;;;;;3.45;1.98;;;27.90;92.10;;;;;;5016050;28;20021;-53
2023/09/05 08:00:19;;;;;;;6.07;1.77;;;27.30;92.80;;;;;;5014836;28;20034;-55
2023/09/05 08:02:45;;;;;;;3.83;2.17;;;27.20;93.00;;;;;;5023181;28;20033;-54
2023/09/05 08:05:11;;;;;;;4.43;1.80;;;27.70;93.40;;;;;;5016772;28;20477;-56
2023/09/05 08:07:38;;;;;;;5.72;2.00;;;28.40;92.20;;;;;;5015540;28;20083;-54
2023/09/05 08:10:05;;;;;;;1.98;1.80;;;28.80;91.80;;;;;;5031488;28;20033;-55
2023/09/05 08:12:30;;;;;;;2.28;1.80;;;28.70;91.20;;;;;;5032119;28;20041;-52
2023/09/05 08:14:56;;;;;;;3.25;2.20;;;29.00;91.10;;;;;;5029956;28;20463;-56
2023/09/05 08:17:22;;;;;;;3.08;1.58;;;29.30;91.10;;;;;;5043015;28;20032;-54
2023/09/05 08:19:47;;;;;;;3.50;1.55;;;29.30;90.70;;;;;;5016846;28;20029;-54
2023/09/05 08:22:13;;;;;;;4.38;2.25;;;28.70;90.70;;;;;;5015119;28;20048;-55
2023/09/05 08:24:38;;;;;;;4.50;2.35;;;29.00;90.40;;;;;;5031157;28;20021;-51
2023/09/05 08:27:05;;;;;;;1.75;1.63;;;29.10;90.60;;;;;;5030895;28;20083;-56
2023/09/05 08:29:31;;;;;;;2.53;2.03;;;28.90;91.00;;;;;;5027753;28;20403;-53
2023/09/05 08:31:58;;;;;;;3.47;1.77;;;28.60;90.80;;;;;;5014720;28;20091;-55
2023/09/05 08:34:24;;;;;;;1.98;1.80;;;27.90;91.20;;;;;;5014400;28;20086;-55
2023/09/05 08:36:50;;;;;;;4.25;1.98;;;27.70;91.40;;;;;;5037001;28;20427;-55
2023/09/05 08:39:15;;;;;;;1.90;1.60;;;28.20;91.80;;;;;;5014192;28;20036;-55
2023/09/05 08:41:42;;;;;;;3.65;1.80;;;28.80;90.80;;;;;;5025892;28;20492;-54
2023/09/05 08:44:08;;;;;;;1.73;1.60;;;29.30;90.20;;;;;;5032200;28;20389;-52
2023/09/05 08:46:35;;;;;;;2.25;2.05;;;28.70;90.50;;;;;;5033903;28;20115;-54
2023/09/05 08:49:01;;;;;;;4.07;1.73;;;28.60;90.80;;;;;;5030375;28;20035;-53
2023/09/05 08:51:32;;;;;;;3.70;1.50;;;28.80;90.50;;;;;;5013415;28;20034;-55
2023/09/05 08:54:00;;;;;;;4.00;2.08;;;28.40;90.60;;;;;;5021597;28;20031;-54
2023/09/05 08:56:26;;;;;;;2.67;2.00;;;28.90;90.20;;;;;;5020716;28;20030;-52
2023/09/05 08:58:52;;;;;;;4.07;1.92;;;28.80;90.60;;;;;;5030373;28;20020;-53
2023/09/05 09:01:19;;;;;;;2.50;1.58;;;29.90;89.50;;;;;;4996286;28;20590;-53
2023/09/05 09:03:44;;;;;;;2.03;1.70;;;30.10;88.10;;;;;;5012941;28;20027;-51
2023/09/05 09:06:10;;;;;;;3.10;1.92;;;29.50;89.70;;;;;;5013986;28;20029;-56
2023/09/05 09:08:44;;;;;;;2.65;1.90;;;30.00;89.50;;;;;;5024667;28;20017;-53
2023/09/05 09:11:10;;;;;;;2.28;1.67;;;30.20;88.60;;;;;;5014390;28;20033;-55
2023/09/05 09:13:38;;;;;;;2.05;1.90;;;30.10;88.10;;;;;;5042030;28;20017;-54
2023/09/05 09:16:05;;;;;;;1.92;1.73;;;29.40;88.80;;;;;;5029943;28;20493;-53
2023/09/05 09:18:33;;;;;;;2.60;1.83;;;29.30;89.80;;;;;;4993946;28;20022;-58
2023/09/05 09:21:03;;;;;;;13.45;11.05;;;29.00;90.80;;;;;;5019844;28;20401;-53
2023/09/05 09:23:33;;;;;;;15.00;11.68;;;28.30;90.70;;;;;;5029893;28;20554;-50
2023/09/05 09:26:05;;;;;;;19.67;16.20;;;27.80;91.40;;;;;;5029885;28;20040;-50
2023/09/05 09:28:34;;;;;;;3.35;2.83;;;27.60;91.70;;;;;;5030001;28;20112;-51
2023/09/05 09:31:02;;;;;;;4.85;1.98;;;27.50;92.10;;;;;;5018828;28;20480;-49
2023/09/05 09:33:32;;;;;;;1.90;1.73;;;27.50;92.30;;;;;;5013984;28;20084;-51
2023/09/05 09:36:00;;;;;;;3.13;2.25;;;27.50;92.20;;;;;;5013209;28;20036;-49
2023/09/05 09:38:28;;;;;;;2.60;2.13;;;27.10;92.80;;;;;;5017611;28;20016;-54
2023/09/05 09:40:55;;;;;;;3.63;2.47;;;27.10;92.70;;;;;;5028315;28;20029;-54
2023/09/05 09:43:20;;;;;;;2.50;2.30;;;27.30;92.70;;;;;;5028718;28;20112;-55
2023/09/05 09:45:46;;;;;;;3.97;2.05;;;27.30;92.40;;;;;;5029300;28;20116;-55
2023/09/05 09:48:15;;;;;;;5.65;2.22;;;27.30;92.90;;;;;;5010619;28;20029;-55
2023/09/05 09:50:43;;;;;;;2.67;2.08;;;27.30;92.70;;;;;;4993091;28;20053;-55
2023/09/05 09:53:12;;;;;;;2.85;2.08;;;27.60;92.80;;;;;;5023394;28;20029;-54
2023/09/05 09:55:43;;;;;;;3.90;1.77;;;27.90;92.50;;;;;;5031068;28;20515;-52
2023/09/05 09:58:13;;;;;;;2.20;2.00;;;28.00;92.00;;;;;;5013363;28;20026;-52
2023/09/05 10:00:47;;;;;;;2.03;1.65;;;28.00;92.10;;;;;;5013111;28;20026;-55
2023/09/05 10:03:16;;;;;;;5.40;1.83;;;28.00;92.20;;;;;;5012881;28;20029;-54
2023/09/05 10:05:43;;;;;;;1.77;1.55;;;27.80;92.50;;;;;;5015000;28;20037;-49
2023/09/05 10:08:12;;;;;;;2.53;1.70;;;27.40;92.30;;;;;;5039443;28;20034;-48
2023/09/05 10:10:41;;;;;;;2.05;1.75;;;27.10;92.90;;;;;;5023892;28;20040;-48
2023/09/05 10:13:11;;;;;;;4.20;2.03;;;26.60;93.20;;;;;;5035475;28;20025;-46
2023/09/05 10:15:38;;;;;;;2.60;2.10;;;26.40;93.30;;;;;;5003552;28;20024;-45
2023/09/05 10:18:09;;;;;;;3.17;2.25;;;26.40;93.40;;;;;;5013266;28;20580;-45
2023/09/05 10:20:37;;;;;;;3.40;1.95;;;26.70;93.90;;;;;;5003992;28;20044;-48
2023/09/05 10:23:05;;;;;;;2.05;1.95;;;26.80;93.60;;;;;;5030898;28;20045;-49
2023/09/05 10:25:31;;;;;;;2.13;1.70;;;26.80;93.60;;;;;;4996816;28;20030;-48
2023/09/05 10:27:57;;;;;;;8.93;3.25;;;26.80;93.70;;;;;;5013796;28;20025;-47
2023/09/05 10:30:23;;;;;;;3.88;2.03;;;26.70;93.40;;;;;;5034191;28;20079;-50
2023/09/05 10:32:51;;;;;;;4.40;1.80;;;26.40;94.20;;;;;;5034127;28;20388;-49
2023/09/05 10:35:18;;;;;;;12.15;1.98;;;25.90;94.10;;;;;;5016033;28;20033;-55
2023/09/05 10:37:48;;;;;;;2.50;1.83;;;25.60;95.60;;;;;;5017489;28;20493;-43
2023/09/05 10:40:15;;;;;;;3.08;1.92;;;25.30;95.70;;;;;;5016098;28;20448;-44
2023/09/05 10:42:49;;;;;;;2.72;1.75;;;25.30;95.60;;;;;;5033970;28;20412;-46
2023/09/05 10:45:23;;;;;;;2.83;2.15;;;25.10;96.00;;;;;;5016340;28;20018;-43
2023/09/05 10:47:53;;;;;;;12.20;8.48;;;24.90;96.80;;;;;;5034172;28;20323;-43
2023/09/05 10:50:20;;;;;;;23.23;18.00;;;25.00;96.60;;;;;;5033605;28;20110;-43
2023/09/05 10:53:11;;;;;;;4.03;2.53;;;25.00;96.80;;;;;;5033469;28;20113;-45
2023/09/05 10:55:44;;;;;;;3.53;2.42;;;25.00;96.80;;;;;;5033983;28;20026;-46
2023/09/05 10:58:37;;;;;;;4.45;2.20;;;24.90;96.90;;;;;;5016353;28;20036;-47
2023/09/05 11:01:32;;;;;;;2.85;2.15;;;24.80;97.50;;;;;;5015797;28;20112;-45
2023/09/05 11:04:03;;;;;;;2.20;1.92;;;24.90;97.10;;;;;;5015886;28;20567;-45
2023/09/05 11:06:30;;;;;;;4.65;1.90;;;24.90;96.80;;;;;;5015964;28;20532;-46
2023/09/05 11:08:57;;;;;;;2.33;2.10;;;24.80;96.70;;;;;;5015880;28;20120;-46
2023/09/05 11:11:24;;;;;;;5.38;1.90;;;24.70;97.50;;;;;;5033777;28;20025;-44
2023/09/05 11:13:50;;;;;;;2.10;1.90;;;24.80;97.70;;;;;;4983388;28;20040;-44
2023/09/05 11:16:16;;;;;;;2.42;1.95;;;24.80;97.50;;;;;;4999889;28;20487;-45
2023/09/05 11:18:47;;;;;;;1.73;1.63;;;24.80;97.90;;;;;;4999727;28;20116;-45
2023/09/05 11:21:24;;;;;;;4.57;1.98;;;24.80;97.40;;;;;;5033852;28;20034;-45
2023/09/05 11:23:51;;;;;;;2.72;2.15;;;24.80;97.40;;;;;;4999015;28;20396;-44
2023/09/05 11:26:17;;;;;;;3.00;1.85;;;24.90;96.80;;;;;;5033420;28;20560;-44
2023/09/05 11:28:43;;;;;;;2.70;2.50;;;24.90;97.60;;;;;;4999136;28;20120;-44
2023/09/05 11:31:11;;;;;;;2.92;2.13;;;24.90;96.90;;;;;;5033115;28;20036;-46
2023/09/05 11:33:37;;;;;;;1.98;1.88;;;25.00;97.20;;;;;;5032634;28;20034;-48
2023/09/05 11:36:06;;;;;;;5.35;1.83;;;25.00;97.00;;;;;;5015235;28;20022;-45
2023/09/05 11:38:48;;;;;;;4.20;2.10;;;25.00;96.30;;;;;;4982697;28;20268;-45
2023/09/05 11:41:14;;;;;;;2.17;1.92;;;25.00;97.00;;;;;;5014473;28;20061;-46
2023/09/05 11:43:53;;;;;;;1.80;1.48;;;24.90;97.10;;;;;;5033027;28;20040;-45
2023/09/05 11:46:20;;;;;;;3.13;2.15;;;25.10;98.10;;;;;;5015758;28;20414;-45
2023/09/05 11:48:48;;;;;;;2.08;1.90;;;25.20;97.20;;;;;;4999553;28;20083;-44
2023/09/05 11:51:14;;;;;;;1.88;1.77;;;25.20;97.70;;;;;;5033321;28;20446;-45
2023/09/05 11:53:42;;;;;;;2.70;1.80;;;25.20;97.50;;;;;;5000012;28;20056;-46
2023/09/05 11:56:08;;;;;;;3.83;1.88;;;25.20;97.30;;;;;;4999300;28;20053;-44
2023/09/05 11:58:34;;;;;;;3.05;2.10;;;25.30;96.60;;;;;;4998671;28;20576;-44
2023/09/05 12:01:00;;;;;;;2.35;1.92;;;25.30;96.70;;;;;;4999030;28;20112;-45
2023/09/05 12:03:28;;;;;;;4.53;2.30;;;25.30;97.20;;;;;;5014791;28;20053;-44
2023/09/05 12:05:54;;;;;;;2.75;1.83;;;25.30;97.20;;;;;;5014936;28;20068;-47
2023/09/05 12:08:21;;;;;;;2.33;1.80;;;25.40;97.20;;;;;;5014866;28;20045;-46
2023/09/05 12:10:50;;;;;;;13.82;10.13;;;25.50;97.10;;;;;;5014503;28;20030;-44
2023/09/05 12:13:17;;;;;;;2.17;1.98;;;25.50;97.00;;;;;;5032494;28;20108;-46
2023/09/05 12:15:45;;;;;;;2.10;1.95;;;25.60;97.00;;;;;;5014398;28;20021;-45
2023/09/05 12:18:19;;;;;;;4.53;1.70;;;25.70;96.80;;;;;;5032323;28;20200;-46
2023/09/05 12:20:57;;;;;;;1.87;1.77;;;25.70;97.20;;;;;;4998603;28;20032;-44
2023/09/05 12:23:26;;;;;;;1.90;1.80;;;25.80;96.90;;;;;;4998563;28;20260;-49
2023/09/05 12:25:52;;;;;;;1.92;1.83;;;25.90;96.60;;;;;;5032353;28;20033;-45
2023/09/05 12:28:20;;;;;;;2.05;1.92;;;25.90;96.30;;;;;;5014600;28;20111;-45
2023/09/05 12:30:53;;;;;;;1.60;1.50;;;25.90;96.30;;;;;;5014773;28;20507;-46
2023/09/05 12:33:20;;;;;;;1.70;1.60;;;25.90;95.70;;;;;;5032217;28;20301;-44
2023/09/05 12:35:46;;;;;;;5.07;1.63;;;25.90;96.30;;;;;;5032383;28;20025;-46
2023/09/05 12:38:13;;;;;;;2.85;1.48;;;25.90;96.20;;;;;;5014600;28;20021;-44
2023/09/05 12:40:40;;;;;;;1.73;1.63;;;26.00;96.00;;;;;;4998404;28;20132;-47
2023/09/05 12:43:06;;;;;;;2.78;2.00;;;26.00;96.20;;;;;;5014294;28;20483;-43
2023/09/05 12:45:35;;;;;;;4.50;1.75;;;26.10;95.50;;;;;;5031804;28;20075;-45